Time;durP1;ratioP1;P1;durP2;ratioP2;P2;SDS_P1;SDS_P2;PMS_P1;PMS_P2;Temp;Humidity;BMP_temperature;BMP_pressure;BME280_temperature;BME280_humidity;BME280_pressure;Samples;Min_cycle;Max_cycle;Signal;HPM_P1;HPM_P2
2023/05/23 00:01:53;;;;;;;11.68;9.18;;;16.00;99.90;;;;;;5011735;28;20026;-77
2023/05/23 00:04:25;;;;;;;12.48;8.82;;;16.00;99.90;;;;;;5010207;28;20102;-76
2023/05/23 00:06:53;;;;;;;14.82;8.57;;;15.90;99.90;;;;;;5011911;28;20018;-77
2023/05/23 00:09:21;;;;;;;12.18;9.68;;;15.90;99.90;;;;;;5009544;28;20053;-77
2023/05/23 00:11:54;;;;;;;12.88;8.77;;;15.80;99.90;;;;;;5009584;28;20034;-77
2023/05/23 00:14:20;;;;;;;14.88;9.52;;;15.80;99.90;;;;;;5027365;28;20019;-76
2023/05/23 00:16:48;;;;;;;12.15;10.18;;;15.80;99.90;;;;;;5010846;28;20066;-77
2023/05/23 00:19:19;;;;;;;16.65;10.45;;;15.70;99.90;;;;;;5012344;28;20026;-77
2023/05/23 00:21:55;;;;;;;13.85;9.90;;;15.60;99.90;;;;;;5011216;28;20045;-77
2023/05/23 00:24:20;;;;;;;13.52;10.63;;;15.70;99.90;;;;;;5010387;28;20033;-77
2023/05/23 00:26:49;;;;;;;15.68;10.73;;;15.60;99.90;;;;;;5011150;28;20023;-77
2023/05/23 00:29:20;;;;;;;15.82;10.88;;;15.60;99.90;;;;;;5026829;28;20042;-76
2023/05/23 00:31:46;;;;;;;14.50;10.45;;;15.60;99.90;;;;;;5026170;28;20038;-76
2023/05/23 00:34:16;;;;;;;14.85;11.13;;;15.60;99.90;;;;;;5009999;28;20011;-76
2023/05/23 00:36:49;;;;;;;16.92;11.23;;;15.50;99.90;;;;;;5010471;28;20014;-76
2023/05/23 00:39:18;;;;;;;18.00;12.85;;;15.50;99.90;;;;;;5026398;28;20086;-77
2023/05/23 00:41:51;;;;;;;20.05;12.30;;;15.50;99.90;;;;;;5010498;28;20065;-77
2023/05/23 00:44:20;;;;;;;16.25;12.40;;;15.50;99.90;;;;;;5024600;28;20102;-77
2023/05/23 00:46:52;;;;;;;17.60;12.07;;;15.60;99.90;;;;;;5013817;28;20045;-77
2023/05/23 00:49:23;;;;;;;13.27;11.27;;;15.60;99.90;;;;;;5008919;28;20034;-77
2023/05/23 00:51:50;;;;;;;16.35;12.15;;;15.60;99.90;;;;;;5024067;28;20066;-78
2023/05/23 00:54:22;;;;;;;16.33;12.48;;;15.70;99.90;;;;;;5024995;28;20026;-77
2023/05/23 00:56:48;;;;;;;12.93;10.82;;;15.70;99.90;;;;;;5012277;28;20038;-77
2023/05/23 00:59:17;;;;;;;14.52;11.30;;;15.80;99.90;;;;;;5007440;28;20026;-77
2023/05/23 01:01:45;;;;;;;14.65;11.93;;;15.70;99.90;;;;;;5022399;28;20030;-76
2023/05/23 01:04:12;;;;;;;19.45;11.45;;;15.80;99.90;;;;;;5025643;28;20018;-77
2023/05/23 01:06:45;;;;;;;15.85;12.15;;;15.80;99.90;;;;;;5018892;28;20041;-76
2023/05/23 01:09:17;;;;;;;16.05;11.20;;;15.80;99.90;;;;;;5025233;28;20046;-76
2023/05/23 01:12:21;;;;;;;14.32;10.73;;;15.90;99.90;;;;;;5007876;28;20041;-76
2023/05/23 01:15:08;;;;;;;14.15;10.57;;;15.90;99.90;;;;;;5008571;28;20019;-77
2023/05/23 01:17:43;;;;;;;16.13;11.52;;;16.00;99.90;;;;;;5020671;28;20006;-76
2023/05/23 01:20:20;;;;;;;14.18;11.80;;;15.90;99.90;;;;;;5010382;28;20018;-76
2023/05/23 01:23:00;;;;;;;14.57;11.43;;;15.90;99.90;;;;;;5009041;28;20030;-77
2023/05/23 01:25:32;;;;;;;21.58;12.15;;;15.90;99.90;;;;;;5024441;28;20018;-77
2023/05/23 01:28:04;;;;;;;16.80;12.40;;;15.90;99.90;;;;;;5024772;28;20015;-77
2023/05/23 01:30:34;;;;;;;20.05;13.13;;;15.90;99.90;;;;;;5008987;28;20019;-76
2023/05/23 01:33:01;;;;;;;17.98;12.45;;;15.90;99.90;;;;;;5018959;28;20054;-77
2023/05/23 01:35:33;;;;;;;17.30;11.90;;;15.90;99.90;;;;;;5007601;28;20091;-77
2023/05/23 01:38:04;;;;;;;15.45;12.02;;;15.90;99.90;;;;;;5022772;28;20034;-77
2023/05/23 01:40:34;;;;;;;16.90;11.95;;;15.90;99.90;;;;;;5012404;28;20022;-77
2023/05/23 01:43:02;;;;;;;18.35;12.70;;;15.90;99.90;;;;;;5011043;28;20033;-77
2023/05/23 01:45:31;;;;;;;17.35;11.73;;;15.80;99.90;;;;;;5025059;28;20023;-76
2023/05/23 01:48:04;;;;;;;13.90;10.02;;;15.80;99.90;;;;;;5025097;28;20014;-77
2023/05/23 01:50:33;;;;;;;14.00;9.13;;;15.80;99.90;;;;;;5006804;28;20031;-76
2023/05/23 01:53:00;;;;;;;9.80;7.20;;;15.80;99.90;;;;;;5008374;28;20019;-77
2023/05/23 01:55:28;;;;;;;9.27;6.07;;;15.70;99.90;;;;;;5010028;28;20090;-76
2023/05/23 01:57:58;;;;;;;7.53;4.75;;;15.70;99.90;;;;;;5024214;28;20028;-76
2023/05/23 02:00:26;;;;;;;5.70;4.45;;;15.60;99.90;;;;;;5010025;28;20026;-76
2023/05/23 02:02:52;;;;;;;5.68;4.60;;;15.60;99.90;;;;;;5025019;28;20085;-76
2023/05/23 02:05:18;;;;;;;5.53;4.95;;;15.60;99.90;;;;;;5024232;28;20026;-76
2023/05/23 02:07:44;;;;;;;8.02;4.28;;;15.60;99.90;;;;;;5024453;28;20054;-76
2023/05/23 02:10:09;;;;;;;7.15;4.60;;;15.60;99.90;;;;;;5024221;28;20022;-77
2023/05/23 02:12:35;;;;;;;8.15;4.70;;;15.60;99.90;;;;;;5025558;28;20042;-76
2023/05/23 02:15:04;;;;;;;6.57;3.97;;;15.70;99.90;;;;;;5006754;28;20037;-76
2023/05/23 02:17:30;;;;;;;5.18;4.50;;;15.60;99.90;;;;;;5010087;28;20015;-76
2023/05/23 02:19:55;;;;;;;4.93;3.70;;;15.50;99.90;;;;;;5012952;28;20061;-77
2023/05/23 02:22:24;;;;;;;5.38;4.13;;;15.60;99.90;;;;;;5024520;28;20037;-81
2023/05/23 02:24:50;;;;;;;5.30;4.35;;;15.50;99.90;;;;;;5010104;28;20040;-77
2023/05/23 02:27:19;;;;;;;6.53;4.38;;;15.60;99.90;;;;;;5008043;28;20038;-77
2023/05/23 02:29:45;;;;;;;8.40;5.07;;;15.50;99.90;;;;;;5006523;28;20023;-78
2023/05/23 02:32:11;;;;;;;6.97;4.32;;;15.60;99.90;;;;;;5008838;28;20045;-77
2023/05/23 02:34:39;;;;;;;6.85;3.97;;;15.60;99.90;;;;;;5025391;28;20027;-78
2023/05/23 02:37:05;;;;;;;6.15;4.68;;;15.70;99.90;;;;;;5024770;28;20041;-75
2023/05/23 02:39:30;;;;;;;10.23;4.70;;;15.60;99.90;;;;;;5010555;28;20026;-76
2023/05/23 02:41:59;;;;;;;8.75;4.45;;;15.60;99.90;;;;;;5009665;28;20014;-76
2023/05/23 02:44:27;;;;;;;8.57;5.80;;;15.60;99.90;;;;;;5023520;28;20033;-76
2023/05/23 02:46:53;;;;;;;6.75;4.72;;;15.60;99.90;;;;;;5021167;28;20026;-76
2023/05/23 02:49:28;;;;;;;5.80;4.70;;;15.50;99.90;;;;;;5026558;28;20025;-76
2023/05/23 02:51:57;;;;;;;8.93;5.43;;;15.60;99.90;;;;;;5010148;28;20058;-78
2023/05/23 02:54:22;;;;;;;8.15;4.88;;;15.50;99.90;;;;;;5009338;28;20041;-77
2023/05/23 02:56:51;;;;;;;6.78;4.93;;;15.50;99.90;;;;;;5024778;28;20042;-76
2023/05/23 02:59:16;;;;;;;8.15;5.93;;;15.60;99.90;;;;;;5024002;28;20014;-76
2023/05/23 03:01:44;;;;;;;7.32;5.53;;;15.50;99.90;;;;;;5024336;28;20033;-76
2023/05/23 03:04:10;;;;;;;8.52;7.10;;;15.60;99.90;;;;;;5022167;28;20208;-76
2023/05/23 03:06:36;;;;;;;9.10;5.80;;;15.60;99.90;;;;;;5009261;28;20038;-77
2023/05/23 03:09:04;;;;;;;10.15;6.68;;;15.50;99.90;;;;;;5023819;28;20023;-76
2023/05/23 03:11:30;;;;;;;8.95;6.20;;;15.60;99.90;;;;;;5020233;28;21162;-77
2023/05/23 03:13:55;;;;;;;7.80;6.28;;;15.60;99.90;;;;;;5025045;28;20038;-76
2023/05/23 03:16:22;;;;;;;9.38;6.70;;;15.60;99.90;;;;;;5024174;28;20053;-76
2023/05/23 03:18:51;;;;;;;8.77;6.40;;;15.60;99.90;;;;;;5007139;28;20027;-75
2023/05/23 03:21:17;;;;;;;10.15;6.93;;;15.70;99.90;;;;;;5005678;28;20046;-76
2023/05/23 03:23:42;;;;;;;10.38;7.13;;;15.60;99.90;;;;;;5022547;28;20042;-76
2023/05/23 03:26:16;;;;;;;8.45;6.82;;;15.60;99.90;;;;;;5023939;28;20033;-76
2023/05/23 03:28:47;;;;;;;10.43;6.95;;;15.60;99.90;;;;;;5010311;28;20035;-77
2023/05/23 03:31:15;;;;;;;11.48;6.97;;;15.50;99.90;;;;;;5024751;28;20156;-77
2023/05/23 03:33:44;;;;;;;11.05;7.25;;;15.50;99.90;;;;;;5009586;28;20026;-76
2023/05/23 03:36:10;;;;;;;18.05;9.02;;;15.30;99.90;;;;;;5021898;28;20026;-76
2023/05/23 03:38:38;;;;;;;12.15;8.48;;;15.20;99.90;;;;;;5009338;28;20029;-76
2023/05/23 03:41:03;;;;;;;12.30;7.73;;;15.00;99.90;;;;;;5025198;28;20282;-76
2023/05/23 03:43:32;;;;;;;20.57;8.73;;;15.00;99.90;;;;;;5025633;28;20030;-76
2023/05/23 03:45:58;;;;;;;14.87;7.50;;;14.90;99.90;;;;;;5008018;28;20030;-77
2023/05/23 03:48:29;;;;;;;15.47;8.07;;;14.90;99.90;;;;;;5004813;28;20019;-77
2023/05/23 03:50:57;;;;;;;13.93;8.63;;;14.90;99.90;;;;;;5010816;28;20031;-76
2023/05/23 03:53:28;;;;;;;11.30;8.20;;;15.00;99.90;;;;;;5007902;28;20037;-78
2023/05/23 03:55:56;;;;;;;10.23;7.60;;;15.00;99.90;;;;;;5019871;28;20017;-77
2023/05/23 03:58:24;;;;;;;13.10;7.53;;;15.00;99.90;;;;;;5025353;28;20014;-76
2023/05/23 04:00:51;;;;;;;11.63;7.50;;;15.00;99.90;;;;;;5023269;28;20018;-76
2023/05/23 04:03:26;;;;;;;10.70;6.57;;;15.00;99.90;;;;;;5008524;28;20038;-76
2023/05/23 04:05:52;;;;;;;10.83;7.57;;;15.00;99.90;;;;;;5022422;28;20019;-76
2023/05/23 04:08:20;;;;;;;10.40;6.80;;;15.00;99.90;;;;;;5009868;28;20038;-77
2023/05/23 04:10:47;;;;;;;12.70;6.67;;;15.10;99.90;;;;;;5006279;28;20034;-76
2023/05/23 04:13:14;;;;;;;10.02;5.63;;;15.10;99.90;;;;;;5007829;28;20050;-76
2023/05/23 04:15:43;;;;;;;9.02;5.82;;;15.10;99.90;;;;;;5006105;28;20014;-76
2023/05/23 04:18:12;;;;;;;14.52;6.78;;;15.10;99.90;;;;;;5024747;28;20029;-77
2023/05/23 04:20:40;;;;;;;7.43;5.32;;;15.10;99.90;;;;;;5008214;28;20014;-76
2023/05/23 04:23:08;;;;;;;11.95;6.15;;;15.00;99.90;;;;;;5008500;28;20031;-77
2023/05/23 04:25:34;;;;;;;12.02;6.20;;;15.20;99.90;;;;;;5010446;28;20023;-76
2023/05/23 04:28:02;;;;;;;9.98;5.88;;;15.20;99.90;;;;;;5024378;28;20026;-76
2023/05/23 04:30:29;;;;;;;9.18;6.25;;;15.10;99.90;;;;;;5024247;28;20027;-76
2023/05/23 04:32:59;;;;;;;13.30;6.80;;;15.20;99.90;;;;;;5025037;28;20076;-77
2023/05/23 04:35:27;;;;;;;8.88;6.18;;;15.20;99.90;;;;;;5029163;28;20042;-76
2023/05/23 04:38:00;;;;;;;13.38;6.95;;;15.20;99.90;;;;;;5011777;28;20026;-76
2023/05/23 04:40:27;;;;;;;12.45;7.22;;;15.10;99.90;;;;;;5010242;28;20059;-75
2023/05/23 04:42:56;;;;;;;9.93;6.35;;;15.20;99.90;;;;;;5012083;28;20045;-76
2023/05/23 04:45:22;;;;;;;11.07;6.60;;;15.10;99.90;;;;;;5010767;28;20087;-77
2023/05/23 04:47:48;;;;;;;12.02;6.78;;;15.20;99.90;;;;;;5010490;28;20019;-76
2023/05/23 04:50:17;;;;;;;12.50;6.70;;;15.10;99.90;;;;;;5027147;28;20042;-77
2023/05/23 04:52:45;;;;;;;11.40;6.47;;;15.00;99.90;;;;;;5027247;28;20062;-76
2023/05/23 04:55:11;;;;;;;14.47;6.13;;;15.00;99.90;;;;;;5008562;28;20022;-77
2023/05/23 04:57:37;;;;;;;15.27;7.30;;;15.10;99.90;;;;;;5010771;28;20022;-77
2023/05/23 05:00:10;;;;;;;10.37;6.30;;;15.00;99.90;;;;;;5014848;28;20022;-77
2023/05/23 05:02:37;;;;;;;9.97;6.20;;;15.00;99.90;;;;;;5012464;28;20026;-76
2023/05/23 05:05:05;;;;;;;12.38;7.15;;;15.10;99.90;;;;;;5027886;28;20026;-76
2023/05/23 05:07:31;;;;;;;11.73;6.77;;;15.00;99.90;;;;;;5026049;28;20020;-76
2023/05/23 05:09:56;;;;;;;12.00;6.17;;;14.90;99.90;;;;;;5010098;28;20014;-76
2023/05/23 05:12:24;;;;;;;7.47;5.93;;;15.00;99.90;;;;;;5011440;28;20378;-77
2023/05/23 05:14:50;;;;;;;12.57;6.45;;;15.00;99.90;;;;;;5009917;28;20023;-76
2023/05/23 05:17:17;;;;;;;12.00;7.22;;;15.00;99.90;;;;;;5010736;28;20023;-76
2023/05/23 05:19:43;;;;;;;8.90;6.30;;;15.00;99.90;;;;;;5009442;28;20019;-76
2023/05/23 05:22:11;;;;;;;11.65;6.45;;;15.00;99.90;;;;;;5009833;28;20042;-76
2023/05/23 05:24:52;;;;;;;11.80;6.67;;;14.90;99.90;;;;;;5009896;28;20041;-76
2023/05/23 05:27:23;;;;;;;11.13;7.25;;;14.90;99.90;;;;;;5009973;28;20033;-75
2023/05/23 05:29:52;;;;;;;14.75;7.05;;;14.90;99.90;;;;;;5008332;28;20118;-76
2023/05/23 05:32:20;;;;;;;11.15;7.03;;;14.90;99.90;;;;;;5011876;28;20058;-76
2023/05/23 05:34:49;;;;;;;11.43;6.73;;;15.00;99.90;;;;;;5021984;28;20054;-76
2023/05/23 05:37:17;;;;;;;11.73;6.82;;;14.90;99.90;;;;;;5022845;28;20049;-76
2023/05/23 05:40:02;;;;;;;9.67;6.57;;;15.00;99.90;;;;;;5010682;28;20019;-76
2023/05/23 05:42:27;;;;;;;8.85;6.78;;;15.00;99.90;;;;;;5026454;28;20081;-76
2023/05/23 05:44:57;;;;;;;13.48;6.82;;;14.90;99.90;;;;;;5007205;28;20019;-76
2023/05/23 05:47:23;;;;;;;9.40;6.65;;;15.00;99.90;;;;;;5023695;28;20021;-76
2023/05/23 05:50:08;;;;;;;13.68;7.03;;;14.90;99.90;;;;;;5015023;28;20116;-77
2023/05/23 05:52:38;;;;;;;10.10;6.35;;;15.00;99.90;;;;;;5009056;28;20044;-76
2023/05/23 05:55:13;;;;;;;13.60;7.63;;;15.00;99.90;;;;;;5025185;28;20054;-76
2023/05/23 05:57:40;;;;;;;13.35;8.00;;;15.00;99.90;;;;;;5009207;28;20022;-76
2023/05/23 06:00:14;;;;;;;16.73;8.43;;;15.00;99.90;;;;;;5024660;28;20031;-76
2023/05/23 06:02:46;;;;;;;18.45;8.65;;;15.00;99.90;;;;;;5024434;28;20086;-76
2023/05/23 06:05:19;;;;;;;10.30;7.68;;;15.00;99.90;;;;;;5008993;28;20019;-77
2023/05/23 06:07:47;;;;;;;13.15;8.05;;;15.00;99.90;;;;;;5009148;28;20110;-76
2023/05/23 06:10:15;;;;;;;14.47;9.13;;;15.00;99.90;;;;;;5007848;28;20027;-76
2023/05/23 06:12:44;;;;;;;13.85;8.57;;;15.00;99.90;;;;;;5008953;28;20037;-76
2023/05/23 06:15:15;;;;;;;17.02;9.88;;;15.00;99.90;;;;;;5008547;28;20126;-76
2023/05/23 06:17:43;;;;;;;17.70;9.10;;;15.00;99.90;;;;;;5005958;28;20022;-77
2023/05/23 06:20:12;;;;;;;14.43;9.25;;;14.90;99.90;;;;;;5009949;28;20015;-76
2023/05/23 06:22:37;;;;;;;17.20;9.00;;;14.90;99.90;;;;;;5023860;28;20050;-76
2023/05/23 06:25:08;;;;;;;14.43;8.23;;;14.90;99.90;;;;;;5011406;28;20082;-77
2023/05/23 06:27:36;;;;;;;15.95;8.77;;;14.90;99.90;;;;;;5009802;28;20015;-76
2023/05/23 06:30:06;;;;;;;14.30;8.95;;;15.00;99.90;;;;;;5010725;28;20027;-76
2023/05/23 06:32:35;;;;;;;13.73;8.45;;;15.00;99.90;;;;;;5022412;28;20053;-76
2023/05/23 06:35:04;;;;;;;14.52;8.80;;;15.10;99.90;;;;;;5009917;28;20082;-77
2023/05/23 06:37:33;;;;;;;14.88;8.88;;;15.10;99.90;;;;;;5007574;28;20018;-76
2023/05/23 06:40:04;;;;;;;18.93;8.43;;;15.00;99.90;;;;;;5006573;28;20028;-75
2023/05/23 06:42:29;;;;;;;13.53;8.87;;;14.90;99.90;;;;;;5008238;28;20018;-76
2023/05/23 06:44:55;;;;;;;13.82;8.32;;;14.90;99.90;;;;;;5023136;28;20033;-76
2023/05/23 06:47:22;;;;;;;11.80;8.13;;;14.90;99.90;;;;;;5008532;28;20023;-76
2023/05/23 06:49:47;;;;;;;14.45;7.80;;;15.00;99.90;;;;;;5010636;28;20026;-76
2023/05/23 06:52:15;;;;;;;12.88;8.00;;;15.00;99.90;;;;;;5009330;28;20037;-76
2023/05/23 06:54:45;;;;;;;17.98;8.50;;;14.90;99.90;;;;;;5006483;28;20021;-75
2023/05/23 06:57:10;;;;;;;13.43;7.45;;;15.10;99.90;;;;;;5025356;28;20011;-76
2023/05/23 06:59:39;;;;;;;14.00;8.07;;;15.10;99.90;;;;;;5026036;28;20026;-76
2023/05/23 07:02:05;;;;;;;11.55;7.15;;;15.10;99.90;;;;;;5023106;28;20065;-76
2023/05/23 07:04:33;;;;;;;10.57;6.95;;;15.10;99.90;;;;;;5007878;28;20023;-75
2023/05/23 07:06:59;;;;;;;13.30;7.68;;;15.20;99.90;;;;;;5007446;28;20026;-75
2023/05/23 07:09:26;;;;;;;9.32;7.35;;;15.20;99.90;;;;;;5022970;28;20073;-75
2023/05/23 07:11:52;;;;;;;12.43;7.28;;;15.30;99.90;;;;;;5024331;28;20080;-76
2023/05/23 07:14:22;;;;;;;14.75;7.03;;;15.20;99.90;;;;;;5006779;28;20026;-76
2023/05/23 07:16:53;;;;;;;14.48;7.30;;;15.30;99.90;;;;;;5025108;28;20019;-76
2023/05/23 07:19:29;;;;;;;12.55;6.75;;;15.20;99.90;;;;;;5009030;28;20059;-76
2023/05/23 07:21:57;;;;;;;11.77;7.20;;;15.40;99.90;;;;;;5007987;28;20050;-75
2023/05/23 07:24:26;;;;;;;15.18;6.72;;;15.40;99.90;;;;;;5009753;28;20019;-76
2023/05/23 07:26:57;;;;;;;10.88;6.90;;;15.40;99.90;;;;;;5025239;28;20038;-78
2023/05/23 07:29:35;;;;;;;13.97;7.17;;;15.40;99.90;;;;;;5024388;28;20061;-75
2023/05/23 07:32:13;;;;;;;12.50;7.05;;;15.40;99.90;;;;;;5010927;28;20076;-76
2023/05/23 07:34:42;;;;;;;10.60;7.15;;;15.40;99.90;;;;;;5023337;28;20019;-76
2023/05/23 07:37:16;;;;;;;14.60;7.93;;;15.40;99.90;;;;;;5024734;28;20077;-76
2023/05/23 07:39:49;;;;;;;11.23;7.13;;;15.30;99.90;;;;;;5025680;28;20014;-76
2023/05/23 07:42:19;;;;;;;9.48;7.10;;;15.30;99.90;;;;;;5012041;28;20034;-76
2023/05/23 07:44:47;;;;;;;12.95;7.18;;;15.40;99.90;;;;;;5023230;28;20018;-76
2023/05/23 07:47:13;;;;;;;10.02;6.60;;;15.40;99.90;;;;;;5008022;28;20014;-76
2023/05/23 07:49:43;;;;;;;11.82;6.88;;;15.50;99.90;;;;;;5008368;28;20026;-78
2023/05/23 07:52:12;;;;;;;14.52;6.82;;;15.60;99.90;;;;;;5007817;28;20034;-75
2023/05/23 07:54:40;;;;;;;15.13;7.07;;;15.50;99.90;;;;;;5012603;28;20035;-76
2023/05/23 07:57:09;;;;;;;13.68;6.75;;;15.30;99.90;;;;;;5006071;28;20053;-75
2023/05/23 07:59:37;;;;;;;11.07;7.00;;;15.40;99.90;;;;;;5017340;28;20090;-75
2023/05/23 08:02:08;;;;;;;10.02;7.07;;;15.40;99.90;;;;;;5007488;28;20034;-76
2023/05/23 08:04:41;;;;;;;10.95;6.65;;;15.30;99.90;;;;;;5018609;28;20095;-75
2023/05/23 08:07:08;;;;;;;13.27;7.18;;;15.30;99.90;;;;;;5008540;28;20014;-76
2023/05/23 08:09:34;;;;;;;15.90;6.78;;;15.30;99.90;;;;;;5022850;28;20214;-76
2023/05/23 08:12:05;;;;;;;12.05;6.88;;;15.30;99.90;;;;;;5009615;28;20030;-76
2023/05/23 08:14:31;;;;;;;12.43;6.68;;;15.20;99.90;;;;;;5013716;28;20070;-76
2023/05/23 08:17:02;;;;;;;14.55;7.00;;;15.20;99.90;;;;;;5013047;28;20053;-76
2023/05/23 08:19:28;;;;;;;10.13;6.40;;;15.20;99.90;;;;;;5011761;28;20022;-76
2023/05/23 08:21:53;;;;;;;11.30;6.95;;;15.30;99.90;;;;;;5027404;28;20305;-76
2023/05/23 08:24:22;;;;;;;12.43;7.13;;;15.40;99.90;;;;;;5010762;28;20021;-76
2023/05/23 08:26:49;;;;;;;10.57;6.72;;;15.50;99.90;;;;;;5010843;28;20039;-76
2023/05/23 08:29:22;;;;;;;16.10;7.45;;;15.50;99.90;;;;;;5011217;28;20033;-76
2023/05/23 08:31:48;;;;;;;11.85;7.13;;;15.50;99.90;;;;;;5013318;28;20151;-76
2023/05/23 08:34:20;;;;;;;16.70;7.22;;;15.50;99.90;;;;;;5027763;28;20014;-76
2023/05/23 08:36:48;;;;;;;14.02;7.22;;;15.40;99.90;;;;;;5012934;28;20227;-76
2023/05/23 08:39:19;;;;;;;15.13;7.78;;;15.50;99.90;;;;;;5010434;28;20022;-75
2023/05/23 08:41:45;;;;;;;16.30;8.57;;;15.60;99.90;;;;;;5010999;28;20034;-75
2023/05/23 08:44:13;;;;;;;16.25;8.77;;;15.50;99.90;;;;;;5012177;28;20022;-76
2023/05/23 08:46:48;;;;;;;18.45;8.40;;;15.50;99.90;;;;;;5027542;28;20018;-76
2023/05/23 08:49:16;;;;;;;18.27;9.15;;;15.40;99.90;;;;;;5021761;28;20037;-75
2023/05/23 08:51:42;;;;;;;12.73;8.20;;;15.40;99.90;;;;;;5014289;28;20027;-77
2023/05/23 08:54:18;;;;;;;15.20;9.30;;;15.40;99.90;;;;;;5026412;28;20033;-76
2023/05/23 08:56:46;;;;;;;16.70;9.70;;;15.30;99.90;;;;;;5010414;28;20058;-76
2023/05/23 08:59:13;;;;;;;21.00;9.27;;;15.20;99.90;;;;;;5010306;28;20011;-75
2023/05/23 09:01:40;;;;;;;20.63;10.05;;;15.30;99.90;;;;;;5026763;28;20018;-76
2023/05/23 09:04:06;;;;;;;20.55;9.40;;;15.30;99.90;;;;;;5011901;28;20039;-76
2023/05/23 09:06:32;;;;;;;16.05;9.23;;;15.20;99.90;;;;;;5011838;28;21113;-75
2023/05/23 09:09:00;;;;;;;24.35;9.40;;;15.30;99.90;;;;;;5010297;28;20045;-76
2023/05/23 09:11:36;;;;;;;23.63;9.20;;;15.40;99.90;;;;;;5011935;28;20077;-76
2023/05/23 09:14:03;;;;;;;18.70;9.43;;;15.40;99.90;;;;;;5026790;28;20126;-75
2023/05/23 09:16:36;;;;;;;25.23;10.25;;;15.10;99.90;;;;;;5027146;28;20022;-75
2023/05/23 09:19:12;;;;;;;;;;;15.20;99.90;;;;;;5023143;28;20022;-76
2023/05/23 09:21:49;;;;;;;27.00;10.40;;;15.00;99.90;;;;;;5002997;28;19944;-75
2023/05/23 09:24:18;;;;;;;23.07;10.80;;;14.90;99.90;;;;;;5010336;28;20014;-75
2023/05/23 09:26:55;;;;;;;26.08;12.10;;;14.80;99.90;;;;;;5024725;28;20038;-76
2023/05/23 09:29:26;;;;;;;26.53;11.93;;;14.60;99.90;;;;;;5011384;28;20018;-76
2023/05/23 09:31:51;;;;;;;25.93;11.50;;;14.40;99.90;;;;;;5016021;28;20046;-75
2023/05/23 09:34:19;;;;;;;20.10;10.53;;;14.20;99.90;;;;;;5008525;28;20053;-75
2023/05/23 09:36:49;;;;;;;23.37;10.97;;;14.10;99.90;;;;;;5008359;28;20034;-75
2023/05/23 09:39:16;;;;;;;19.83;10.03;;;14.00;99.90;;;;;;5013947;28;20102;-75
2023/05/23 09:41:43;;;;;;;17.87;9.27;;;13.90;99.90;;;;;;5010440;28;20030;-76
2023/05/23 09:44:09;;;;;;;24.13;9.47;;;14.00;99.90;;;;;;5008938;28;20114;-75
2023/05/23 09:46:37;;;;;;;17.37;9.10;;;13.90;99.90;;;;;;5007643;28;20026;-76
2023/05/23 09:49:15;;;;;;;21.93;10.37;;;14.00;99.90;;;;;;5010494;28;20070;-75
2023/05/23 09:51:41;;;;;;;22.10;9.87;;;14.00;99.90;;;;;;5010417;28;20058;-75
2023/05/23 09:54:09;;;;;;;19.53;10.60;;;14.00;99.90;;;;;;5025775;28;20031;-75
2023/05/23 09:56:43;;;;;;;19.73;10.80;;;13.90;99.90;;;;;;5008435;28;20082;-76
2023/05/23 09:59:22;;;;;;;23.10;10.33;;;14.10;99.90;;;;;;5011012;28;20034;-76
2023/05/23 10:01:52;;;;;;;17.03;8.80;;;14.20;99.90;;;;;;5024295;28;20035;-75
2023/05/23 10:04:23;;;;;;;22.77;9.73;;;14.40;99.90;;;;;;5009635;28;20026;-76
2023/05/23 10:07:02;;;;;;;18.15;8.65;;;14.50;99.90;;;;;;5011047;28;20046;-75
2023/05/23 10:09:35;;;;;;;17.03;8.27;;;14.60;99.90;;;;;;5011898;28;20066;-75
2023/05/23 10:12:31;;;;;;;20.00;8.37;;;14.50;99.90;;;;;;5010441;28;20030;-76
2023/05/23 10:15:15;;;;;;;15.83;7.27;;;14.40;99.90;;;;;;5117949;27;20452;-76
2023/05/23 10:18:31;;;;;;;19.20;8.27;;;14.50;99.90;;;;;;5077173;28;20021;-75
2023/05/23 10:21:05;;;;;;;15.70;7.63;;;14.40;99.90;;;;;;5074681;28;20021;-75
2023/05/23 10:23:32;;;;;;;14.02;6.68;;;14.60;99.90;;;;;;5079241;28;20052;-75
2023/05/23 10:26:04;;;;;;;18.02;6.85;;;14.80;99.90;;;;;;5091396;28;20051;-75
2023/05/23 10:28:42;;;;;;;14.82;6.43;;;14.70;99.90;;;;;;5075007;28;20040;-75
2023/05/23 10:31:10;;;;;;;17.63;6.75;;;14.60;99.90;;;;;;5074592;28;20014;-75
2023/05/23 10:33:44;;;;;;;11.32;6.03;;;14.80;99.90;;;;;;5092815;28;20056;-75
2023/05/23 10:36:47;;;;;;;11.10;5.43;;;14.80;99.90;;;;;;5075559;28;20017;-76
2023/05/23 10:39:28;;;;;;;13.40;5.93;;;14.90;99.90;;;;;;5073953;28;20041;-75
2023/05/23 10:42:19;;;;;;;11.63;6.28;;;14.90;99.90;;;;;;5061706;28;20287;-77
2023/05/23 10:44:45;;;;;;;10.27;4.85;;;14.80;99.90;;;;;;5067588;28;20021;-78
2023/05/23 10:47:11;;;;;;;11.80;5.82;;;14.90;99.90;;;;;;5076265;28;20036;-77
2023/05/23 10:49:44;;;;;;;10.82;6.57;;;14.90;99.90;;;;;;5079270;28;20022;-77
2023/05/23 10:52:17;;;;;;;15.02;6.28;;;14.70;99.90;;;;;;5075687;28;20033;-78
2023/05/23 10:54:51;;;;;;;19.20;6.75;;;14.60;99.90;;;;;;5074303;28;20048;-79
2023/05/23 10:57:25;;;;;;;12.35;5.85;;;14.60;99.90;;;;;;5093952;28;20032;-77
2023/05/23 10:59:51;;;;;;;12.90;6.55;;;14.70;99.90;;;;;;5076011;28;20493;-78
2023/05/23 11:02:27;;;;;;;11.38;6.30;;;14.60;99.90;;;;;;5074192;28;20034;-78
2023/05/23 11:05:23;;;;;;;12.40;6.67;;;14.50;99.90;;;;;;5071365;28;20077;-77
2023/05/23 11:08:09;;;;;;;12.25;6.15;;;14.60;99.90;;;;;;5073623;28;20041;-76
2023/05/23 11:11:01;;;;;;;10.18;5.75;;;14.60;99.90;;;;;;5070533;28;20050;-77
2023/05/23 11:13:54;;;;;;;10.03;5.80;;;14.60;99.90;;;;;;5073708;28;20072;-77
2023/05/23 11:16:27;;;;;;;10.57;5.97;;;14.50;99.90;;;;;;5086086;28;20039;-77
2023/05/23 11:19:16;;;;;;;12.30;5.93;;;14.50;99.90;;;;;;5071952;28;20035;-81
2023/05/23 11:21:43;;;;;;;8.70;5.13;;;14.60;99.90;;;;;;5072721;28;20029;-79
2023/05/23 11:24:09;;;;;;;10.87;6.20;;;14.60;99.90;;;;;;5105036;28;20021;-77
2023/05/23 11:26:35;;;;;;;11.00;5.20;;;14.80;99.90;;;;;;5057982;28;20056;-79
2023/05/23 11:29:03;;;;;;;10.73;6.47;;;14.80;99.90;;;;;;5057299;28;20024;-79
2023/05/23 11:31:29;;;;;;;12.50;6.45;;;14.80;99.90;;;;;;5057661;28;20024;-78
2023/05/23 11:33:55;;;;;;;19.35;6.90;;;14.80;99.90;;;;;;5061117;28;20025;-75
2023/05/23 11:36:21;;;;;;;14.38;6.43;;;15.00;99.90;;;;;;5061991;28;21176;-78
2023/05/23 11:38:51;;;;;;;15.68;6.90;;;15.00;99.90;;;;;;5062158;28;20037;-77
2023/05/23 11:41:20;;;;;;;12.25;5.72;;;15.20;99.90;;;;;;5063020;28;20033;-77
2023/05/23 11:43:52;;;;;;;13.57;6.63;;;15.60;99.90;;;;;;5062792;28;20056;-76
2023/05/23 11:46:18;;;;;;;17.02;6.30;;;15.70;99.90;;;;;;5060981;28;20029;-76
2023/05/23 11:48:45;;;;;;;9.40;5.80;;;15.80;99.90;;;;;;5063869;28;20041;-76
2023/05/23 11:51:11;;;;;;;14.20;6.15;;;16.00;99.90;;;;;;5063624;28;20020;-77
2023/05/23 11:53:41;;;;;;;13.18;7.30;;;16.30;99.90;;;;;;5061747;28;20052;-76
2023/05/23 11:56:07;;;;;;;14.23;6.90;;;16.20;99.90;;;;;;5058585;28;20022;-75
2023/05/23 11:58:35;;;;;;;12.32;6.35;;;16.20;99.90;;;;;;5058080;28;20029;-76
2023/05/23 12:01:13;;;;;;;12.98;6.32;;;16.30;99.90;;;;;;5093427;28;20098;-75
2023/05/23 12:03:52;;;;;;;13.98;5.68;;;16.20;99.90;;;;;;5060053;28;20056;-76
2023/05/23 12:06:35;;;;;;;8.50;5.15;;;16.00;99.90;;;;;;5071541;28;20025;-76
2023/05/23 12:09:01;;;;;;;10.15;5.43;;;16.20;99.90;;;;;;5061354;28;20045;-75
2023/05/23 12:11:30;;;;;;;11.98;6.50;;;16.30;99.90;;;;;;5071920;28;20030;-76
2023/05/23 12:13:56;;;;;;;16.25;6.55;;;16.40;99.90;;;;;;5063878;28;20028;-75
2023/05/23 12:16:22;;;;;;;13.02;6.25;;;16.40;99.90;;;;;;5060804;28;20647;-75
2023/05/23 12:18:52;;;;;;;10.55;5.35;;;16.50;99.90;;;;;;5062413;28;20026;-76
2023/05/23 12:21:17;;;;;;;10.25;5.57;;;16.60;99.90;;;;;;5062062;28;20021;-75
2023/05/23 12:23:48;;;;;;;11.68;5.60;;;16.70;99.90;;;;;;5062767;28;20047;-75
2023/05/23 12:26:14;;;;;;;16.20;6.28;;;16.50;99.90;;;;;;5059524;28;20029;-76
2023/05/23 12:28:42;;;;;;;10.98;5.03;;;16.50;99.90;;;;;;5062121;28;20054;-76
2023/05/23 12:31:17;;;;;;;10.60;5.45;;;16.60;99.90;;;;;;5064218;28;20131;-75
2023/05/23 12:33:46;;;;;;;11.88;4.93;;;16.70;99.90;;;;;;5074004;28;20064;-75
2023/05/23 12:36:13;;;;;;;10.57;4.82;;;16.80;99.90;;;;;;5078061;28;20024;-76
2023/05/23 12:38:44;;;;;;;8.43;4.10;;;16.80;99.90;;;;;;5062706;28;20021;-75
2023/05/23 12:41:20;;;;;;;9.32;4.78;;;16.80;99.90;;;;;;5060809;28;20039;-76
2023/05/23 12:43:55;;;;;;;11.55;4.70;;;16.90;99.90;;;;;;5074768;28;20029;-76
2023/05/23 12:46:23;;;;;;;6.28;4.00;;;16.70;99.90;;;;;;5063666;28;20048;-75
2023/05/23 12:48:49;;;;;;;9.35;5.00;;;16.80;99.90;;;;;;5062728;28;20033;-75
2023/05/23 12:51:18;;;;;;;10.20;4.80;;;16.70;99.90;;;;;;5061844;28;20028;-76
2023/05/23 12:53:44;;;;;;;11.85;4.63;;;16.70;99.90;;;;;;5061317;28;20031;-75